Tiempo atmosférico en la estación meteorológica de Agüimes, Las Palmas (306 m.)



Fecha
DESCASC
Temp. máxima en grados centígrados (hora)
DESCASC
Temp. mínima en grados centígrados (hora)
DESCASC
Temp. media en grados centígrados
DESCASC
Racha de viento máxima en m/sg (hora)
DESCASC
Velocidad máxima media en intervalos de 10 minutos(hora)
DESCASC
Precipitaciones diarias en mm
DESCASC
Precipitaciones de 00:00 a 06:00 en mm
DESCASC
Precipitaciones de 06:00 a 12:00 en mm
DESCASC
Precipitaciones de 12:00 a 18:00 en mm
DESCASC
Precipitaciones de 18:00 a 24:00 en mm
DESCASC
02-08-2020 35.1 (13:50) 21.4 (01:50) 28.2 17.78 (20:30) 12.5 (20:30) 0 0 0 0 0
01-08-2020 30.1 (15:50) 20.1 (03:30) 25.1 12.78 (16:20) 8.89 (16:40) 0 0 0 0 0
31-07-2020 27.1 (16:00) 19.1 (07:00) 23.1 16.39 (01:00) 11.67 (00:50) 0 0 0 0 0
30-07-2020 30.3 (13:50) 17.9 (00:00) 24.1 15.28 (16:00) 10.28 (14:10) 0 0 0 0 0
29-07-2020 29 (14:20) 19.2 (00:00) 24.1 21.39 (11:50) 14.72 (11:00) 0 0 0 0 0
28-07-2020 31.7 (14:00) 21.3 (00:00) 26.5 17.78 (15:10) 12.5 (18:00) 0 0 0 0 0
27-07-2020 33.8 (12:30) 20.5 (00:00) 27.1 18.06 (10:20) 13.61 (01:40) 0 0 0 0 0
26-07-2020 31.5 (11:50) 22.2 (00:00) 26.9 18.06 (17:00) 12.78 (14:50) 0 0 0 0 0
25-07-2020 33.8 (15:20) 19.4 (00:00) 26.6 18.61 (11:40) 13.61 (11:40) 0 0 0 0 0
24-07-2020 34 (15:50) 23.1 (00:00) 28.6 17.22 (01:10) 12.22 (01:20) 0 0 0 0 0
23-07-2020 34.5 (14:20) 26.9 (00:00) 30.7 17.5 (04:40) 12.22 (02:40) 0 0 0 0 0
22-07-2020 29.2 (16:30) 19.6 (00:00) 24.4 17.78 (16:10) 12.5 (15:50) 0 0 0 0 0
21-07-2020 29.5 (01:20) 19.4 (00:00) 24.4 21.11 (04:50) 13.33 (03:40) 0 0 0 0 0
20-07-2020 34.8 (15:30) 22.4 (00:00) 28.6 18.33 (00:10) 13.89 (21:00) 0 0 0 0 0
19-07-2020 37.9 (14:40) 29.7 (00:00) 33.8 19.72 (18:40) 13.61 (22:20) 0 0 0 0 0
18-07-2020 37.3 (16:50) 20 (00:00) 28.6 15 (21:30) 10.56 (18:00) 0 0 0 0 0
17-07-2020 35.1 (17:10) 19.8 (00:00) 27.4 7.5 (07:20) 5.28 (17:50) 0 0 0 0 0
16-07-2020 33.8 (17:10) 19.1 (00:00) 26.4 9.72 (12:40) 6.94 (13:30) 0 0 0 0 0
15-07-2020 34 (13:40) 23.9 (00:00) 28.9 17.78 (00:10) 11.11 (01:20) 0 0 0 0 0
14-07-2020 34.1 (14:20) 17.5 (00:00) 25.8 19.17 (21:20) 11.94 (23:50) 0 0 0 0 0
13-07-2020 32.1 (16:00) 20.3 (00:00) 26.2 14.44 (17:10) 10 (16:10) 0 0 0 0 0
12-07-2020 32.8 (13:10) 22.2 (22:50) 27.5 16.39 (01:10) 10.56 (00:20) 0 0 0 0 0
11-07-2020 34.6 (16:40) 19.9 (00:30) 27.2 16.67 (15:10) 10.56 (14:10) 0 0 0 0 0
10-07-2020 34.1 (17:00) 19.6 (00:00) 26.8 16.11 (01:20) 12.22 (01:20) 0 0 0 0 0
09-07-2020 34.7 (15:30) 21.2 (23:40) 28 17.22 (12:50) 11.94 (10:40) 0 0 0 0 0
08-07-2020 40.6 (13:00) 23.7 (01:10) 32.1 18.89 (19:00) 13.06 (19:10) 0 0 0 0 0

Gráficas

Temp. máximas Temp. mínimas Temp. medias Precipitaciones Rachas de viento máximas Velocidades máximas media en intervalos de 10 minutos

Datos horarios

Fecha y hora oficial Temperatura (ºC) Velocidad del viento (km/h) Dirección del viento Racha (km/h) Dirección de racha Precipitación (mm) Presión (hPa) Tendencia (hPa) Humedad (%)
2020-08-06 23:00:00 20.7 6 Sudoeste 14 Sudeste 0 -- -- 79
2020-08-06 22:00:00 21.2 5 Sur 12 Sur 0 -- -- 79
2020-08-06 21:00:00 22.3 8 Sur 18 Sur 0 -- -- 73
2020-08-06 20:00:00 24.1 12 Sur 31 Sudoeste 0 -- -- 65
2020-08-06 19:00:00 26.7 18 Sudoeste 34 Sudoeste 0 -- -- 56
2020-08-06 18:00:00 28.3 18 Norte 39 Nordeste 0 -- -- 50
2020-08-06 17:00:00 29.3 13 Nordeste 46 Nordeste 0 -- -- 48
2020-08-06 16:00:00 28.5 26 Nordeste 48 Nordeste 0 -- -- 51
2020-08-06 15:00:00 28.8 22 Norte 44 Nordeste 0 -- -- 50
2020-08-06 14:00:00 27.7 12 Sur 43 Sudoeste 0 -- -- 55
2020-08-06 13:00:00 28.3 12 Sudoeste 35 Sudoeste 0 -- -- 53
2020-08-06 12:00:00 27.2 6 Sudeste 26 Nordeste 0 -- -- 54
2020-08-06 11:00:00 25.5 16 Nordeste 29 Nordeste 0 -- -- 60
2020-08-06 10:00:00 22.9 8 Sur 15 Sudoeste 0 -- -- 68
2020-08-06 09:00:00 20.5 3 Oeste 5 Sudeste 0 -- -- 78
2020-08-06 08:00:00 18.2 0 Calma 9 Oeste 0 -- -- 89
2020-08-06 07:00:00 17.9 0 Calma 6 Norte 0 -- -- 89
2020-08-06 06:00:00 18.3 3 Noroeste 7 Sudoeste 0 -- -- 90
2020-08-06 05:00:00 18.5 3 Sur 8 Sudoeste 0 -- -- 88
2020-08-06 04:00:00 18.7 3 Oeste 7 Sudoeste 0 -- -- 88
2020-08-06 03:00:00 18.9 2 Oeste 5 Sudoeste 0 -- -- 88
2020-08-06 02:00:00 19.2 4 Sudoeste 7 Sudoeste 0 -- -- 87
2020-08-06 01:00:00 19.5 0 Calma 5 Sur 0 -- -- 85
2020-08-06 00:00:00 19.9 4 Sur 8 Sur 0 -- -- 84
2020-08-05 23:00:00 20.5 4 Sur 7 Sur 0 -- -- 81
2020-08-05 22:00:00 21.3 6 Sur 10 Sur 0 -- -- 77
2020-08-05 21:00:00 22.3 5 Sur 13 Sur 0 -- -- 73
2020-08-05 20:00:00 23.7 9 Sur 21 Sur 0 -- -- 68
2020-08-05 19:00:00 25 11 Sur 23 Sur 0 -- -- 63
2020-08-05 18:00:00 25.9 12 Sur 26 Sur 0 -- -- 60
2020-08-05 17:00:00 27.3 17 Sur 31 Sudoeste 0 -- -- 55
2020-08-05 16:00:00 28.5 17 Sur 41 Sudoeste 0 -- -- 52
2020-08-05 15:00:00 31.4 13 Noroeste 42 Nordeste 0 -- -- 42
2020-08-05 14:00:00 32.1 28 Nordeste 41 Nordeste 0 -- -- 35
2020-08-05 13:00:00 30.7 19 Nordeste 36 Nordeste 0 -- -- 40
2020-08-05 12:00:00 28.1 9 Este 22 Sur 0 -- -- 49
2020-08-05 11:00:00 24.9 10 Sur 19 Sur 0 -- -- 63
2020-08-05 10:00:00 22.8 4 Sur 14 Sur 0 -- -- 73
2020-08-05 09:00:00 21.1 8 Sur 12 Sudoeste 0 -- -- 81
2020-08-05 08:00:00 19.2 5 Sudoeste 10 Sur 0 -- -- 88
2020-08-05 07:00:00 18.9 4 Sudoeste 9 Sur 0 -- -- 86
2020-08-05 06:00:00 19 3 Sur 8 Sur 0 -- -- 85
2020-08-05 05:00:00 19.1 5 Sudoeste 11 Sur 0 -- -- 85
2020-08-05 04:00:00 19.4 4 Sudoeste 10 Sudoeste 0 -- -- 85
2020-08-05 03:00:00 19.7 4 Sudoeste 14 Sudoeste 0 -- -- 84
2020-08-05 02:00:00 20 4 Oeste 12 Sur 0 -- -- 81
2020-08-05 01:00:00 20.3 4 Sudoeste 9 Sudoeste 0 -- -- 80
2020-08-05 00:00:00 20.9 6 Sudoeste 17 Sur 0 -- -- 81
2020-08-04 23:00:00 22 8 Sudoeste 16 Sudoeste 0 -- -- 71
2020-08-04 22:00:00 22.7 6 Sudoeste 18 Sur 0 -- -- 66
2020-08-04 21:00:00 24.3 4 Sur 22 Sur 0 -- -- 62
2020-08-04 20:00:00 25.9 9 Sur 27 Norte 0 -- -- 57
2020-08-04 19:00:00 28.3 18 Norte 37 Norte 0 -- -- 48
2020-08-04 18:00:00 30 27 Norte 45 Norte 0 -- -- 45
2020-08-04 17:00:00 31.4 31 Nordeste 49 Nordeste 0 -- -- 42
2020-08-04 16:00:00 32.4 33 Nordeste 56 Nordeste 0 -- -- 37
2020-08-04 15:00:00 32.3 38 Nordeste 59 Norte 0 -- -- 36
2020-08-04 14:00:00 32 33 Norte 51 Norte 0 -- -- 36
2020-08-04 13:00:00 31 31 Nordeste 50 Norte 0 -- -- 42
2020-08-04 12:00:00 28 34 Norte 55 Norte 0 -- -- 52
2020-08-04 11:00:00 25.4 37 Norte 58 Nordeste 0 -- -- 60
2020-08-04 10:00:00 23.8 41 Norte 57 Norte 0 -- -- 64
2020-08-04 09:00:00 22.3 39 Norte 60 Norte 0 -- -- 69
2020-08-04 08:00:00 21.2 40 Norte 62 Norte 0 -- -- 70
2020-08-04 07:00:00 22.3 33 Norte 58 Norte 0 -- -- 58
2020-08-04 06:00:00 26.1 38 Norte 59 Norte 0 -- -- 32
2020-08-04 05:00:00 25.7 38 Norte 67 Norte 0 -- -- 20
2020-08-04 04:00:00 26 43 Norte 59 Norte 0 -- -- 18
2020-08-04 03:00:00 29.3 39 Norte 68 Norte 0 -- -- 13
2020-08-04 02:00:00 28.7 42 Norte 65 Norte 0 -- -- 11
2020-08-04 01:00:00 28.9 43 Norte 67 Norte 0 -- -- 12
2020-08-04 00:00:00 29.1 43 Norte 66 Norte 0 -- -- 14
2020-08-03 23:00:00 29.2 46 Norte 67 Norte 0 -- -- 18
2020-08-03 22:00:00 29.3 39 Norte 63 Norte 0 -- -- 19
2020-08-03 21:00:00 28.8 40 Norte 62 Nordeste 0 -- -- 16
2020-08-03 20:00:00 30.4 41 Norte 67 Norte 0 -- -- 17
2020-08-03 19:00:00 31.5 49 Norte 75 Norte 0 -- -- 16
2020-08-03 18:00:00 31.9 51 Norte 74 Norte 0 -- -- 19
2020-08-03 17:00:00 33.3 44 Norte 66 Norte 0 -- -- 22
2020-08-03 16:00:00 34.6 44 Norte 62 Norte 0 -- -- 24
2020-08-03 15:00:00 35 40 Norte 58 Norte 0 -- -- 25
2020-08-03 14:00:00 35.9 38 Norte 60 Norte 0 -- -- 20
2020-08-03 13:00:00 34.5 42 Norte 60 Norte 0 -- -- 19
2020-08-03 12:00:00 35.7 30 Norte 54 Norte 0 -- -- 16
2020-08-03 11:00:00 34.6 35 Norte 55 Norte 0 -- -- 15
2020-08-03 10:00:00 34.6 37 Norte 60 Norte 0 -- -- 13
2020-08-03 09:00:00 32.2 37 Norte 66 Norte 0 -- -- 12
2020-08-03 08:00:00 30.9 38 Norte 63 Norte 0 -- -- 14
2020-08-03 07:00:00 31 41 Norte 66 Norte 0 -- -- 13
2020-08-03 06:00:00 31.5 41 Norte 76 Norte 0 -- -- 12
2020-08-03 05:00:00 31.4 42 Norte 64 Norte 0 -- -- 14
2020-08-03 04:00:00 30.5 46 Norte 64 Norte 0 -- -- 17
2020-08-03 03:00:00 28.5 41 Norte 66 Norte 0 -- -- 26
2020-08-03 02:00:00 27.7 47 Norte 63 Norte 0 -- -- 33
2020-08-03 01:00:00 29.6 37 Norte 57 Norte 0 -- -- 27
2020-08-03 00:00:00 32.5 36 Norte 62 Norte 0 -- -- 11
2020-08-02 23:00:00 32.7 39 Norte 57 Norte 0 -- -- 9
2020-08-02 22:00:00 32.4 37 Norte 62 Norte 0 -- -- 9
2020-08-02 21:00:00 31.7 38 Norte 64 Norte 0 -- -- 10
2020-08-02 20:00:00 32.1 40 Norte 57 Norte 0 -- -- 11
2020-08-02 19:00:00 33.1 38 Norte 62 Norte 0 -- -- 11
2020-08-02 18:00:00 34.1 40 Norte 59 Norte 0 -- -- 13
2020-08-02 17:00:00 34.1 41 Norte 63 Norte 0 -- -- 17
2020-08-02 16:00:00 34.4 37 Norte 62 Norte 0 -- -- 23
2020-08-02 15:00:00 33.7 40 Nordeste 60 Norte 0 -- -- 30
2020-08-02 14:00:00 35 38 Norte 54 Norte 0 -- -- 17
2020-08-02 13:00:00 34 33 Norte 50 Norte 0 -- -- 27
2020-08-02 12:00:00 34.5 29 Norte 47 Norte 0 -- -- 27
2020-08-02 11:00:00 32.9 32 Norte 49 Nordeste 0 -- -- 19
2020-08-02 10:00:00 30.8 27 Norte 42 Norte 0 -- -- 21
2020-08-02 09:00:00 30.5 17 Norte 32 Norte 0 -- -- 30
2020-08-02 08:00:00 27.6 16 Norte 39 Norte 0 -- -- 41
2020-08-02 07:00:00 25.3 21 Nordeste 31 Nordeste 0 -- -- 32
2020-08-02 06:00:00 28.9 16 Norte 39 Norte 0 -- -- 27
2020-08-02 05:00:00 24.4 13 Nordeste 17 Nordeste 0 -- -- 45
2020-08-02 04:00:00 24.3 9 Nordeste 24 Nordeste 0 -- -- 60
2020-08-02 03:00:00 23.3 7 Nordeste 23 Nordeste 0 -- -- 61
2020-08-02 02:00:00 21.4 4 Sudoeste 16 Sudoeste 0 -- -- 78
2020-08-02 01:00:00 22.3 7 Sudoeste 14 Sudoeste 0 -- -- 73
2020-08-02 00:00:00 24.1 6 Nordeste 20 Nordeste 0 -- -- 53
2020-08-01 23:00:00 23.1 5 Sudoeste 10 Sudoeste 0 -- -- 67
2020-08-01 22:00:00 24.3 4 Sur 14 Nordeste 0 -- -- 57
2020-08-01 21:00:00 26.6 3 Sur 32 Nordeste 0 -- -- 43
2020-08-01 20:00:00 27.4 19 Nordeste 36 Nordeste 0 -- -- 35
2020-08-01 19:00:00 26.9 19 Nordeste 37 Nordeste 0 -- -- 58
2020-08-01 18:00:00 27.8 23 Nordeste 41 Norte 0 -- -- 57
2020-08-01 17:00:00 28 31 Nordeste 46 Norte 0 -- -- 57
2020-08-01 16:00:00 30 30 Norte 40 Nordeste 0 -- -- 53
2020-08-01 15:00:00 28.3 28 Nordeste 41 Nordeste 0 -- -- 57
2020-08-01 14:00:00 27.7 26 Nordeste 37 Nordeste 0 -- -- 59
2020-08-01 13:00:00 26.3 26 Nordeste 40 Nordeste 0 -- -- 63
2020-08-01 12:00:00 24.6 22 Nordeste 32 Nordeste 0 -- -- 69
2020-08-01 11:00:00 24.1 21 Nordeste 36 Nordeste 0 -- -- 69
2020-08-01 10:00:00 22.7 22 Nordeste 37 Nordeste 0 -- -- 73
2020-08-01 09:00:00 21.5 20 Nordeste 32 Nordeste 0 -- -- 76
2020-08-01 08:00:00 20.4 5 Noroeste 24 Nordeste 0 -- -- 79
2020-08-01 07:00:00 20.5 3 Sudeste 17 Sudoeste 0 -- -- 78
2020-08-01 06:00:00 21.2 5 Nordeste 23 Norte 0 -- -- 66
2020-08-01 05:00:00 20.5 3 Norte 15 Norte 0 -- -- 75
2020-08-01 04:00:00 20.3 9 Norte 22 Nordeste 0 -- -- 79
2020-08-01 03:00:00 20.2 15 Norte 26 Nordeste 0 -- -- 79
2020-08-01 02:00:00 21.1 3 Sur 32 Norte 0 -- -- 76
2020-08-01 01:00:00 20.2 19 Nordeste 42 Norte 0 -- -- 81
2020-08-01 00:00:00 20.5 26 Norte 43 Nordeste 0 -- -- 79
2020-07-31 23:00:00 20.7 28 Norte 44 Nordeste 0 -- -- 80
2020-07-31 22:00:00 21 24 Nordeste 40 Nordeste 0 -- -- 78
2020-07-31 21:00:00 21.7 25 Nordeste 41 Norte 0 -- -- 75
2020-07-31 20:00:00 23.2 26 Nordeste 37 Nordeste 0 -- -- 69
2020-07-31 19:00:00 24.7 27 Nordeste 43 Nordeste 0 -- -- 63
2020-07-31 18:00:00 25.6 26 Nordeste 42 Nordeste 0 -- -- 61
2020-07-31 17:00:00 26 30 Nordeste 41 Nordeste 0 -- -- 60
2020-07-31 16:00:00 27.1 24 Nordeste 44 Nordeste 0 -- -- 57
2020-07-31 15:00:00 26.3 28 Nordeste 43 Nordeste 0 -- -- 59
2020-07-31 14:00:00 26 24 Nordeste 42 Norte 0 -- -- 59
2020-07-31 13:00:00 25.6 26 Nordeste 39 Nordeste 0 -- -- 60
2020-07-31 12:00:00 24.7 27 Nordeste 40 Nordeste 0 -- -- 64
2020-07-31 11:00:00 23.4 25 Nordeste 38 Nordeste 0 -- -- 67
2020-07-31 10:00:00 22.2 24 Nordeste 34 Nordeste 0 -- -- 70
2020-07-31 09:00:00 20.3 21 Norte 35 Norte 0 -- -- 76
2020-07-31 08:00:00 19.4 23 Nordeste 32 Nordeste 0 -- -- 79
2020-07-31 07:00:00 19.1 13 Nordeste 24 Norte 0 -- -- 77
2020-07-31 06:00:00 19.5 14 Norte 40 Norte 0 -- -- 76
2020-07-31 05:00:00 19.3 20 Norte 32 Norte 0 -- -- 79
2020-07-31 04:00:00 19.4 18 Norte 40 Nordeste 0 -- -- 79
2020-07-31 03:00:00 19.5 28 Norte 49 Norte 0 -- -- 78
2020-07-31 02:00:00 19.6 33 Norte 54 Norte 0 -- -- 78
2020-07-31 01:00:00 19.7 40 Norte 59 Norte 0 -- -- 78
2020-07-31 00:00:00 19.8 30 Norte 44 Nordeste 0 -- -- 77
2020-07-30 23:00:00 20.2 32 Norte 45 Norte 0 -- -- 75
2020-07-30 22:00:00 20.6 28 Nordeste 41 Norte 0 -- -- 73
2020-07-30 21:00:00 21.6 24 Nordeste 43 Nordeste 0 -- -- 70
2020-07-30 20:00:00 23 28 Nordeste 45 Norte 0 -- -- 64
2020-07-30 19:00:00 24.2 32 Norte 50 Nordeste 0 -- -- 62
2020-07-30 18:00:00 25.3 37 Norte 54 Norte 0 -- -- 56
2020-07-30 17:00:00 26.1 36 Nordeste 54 Nordeste 0 -- -- 56
2020-07-30 16:00:00 27 36 Nordeste 55 Nordeste 0 -- -- 52
2020-07-30 15:00:00 28.3 35 Nordeste 51 Nordeste 0 -- -- 49
2020-07-30 14:00:00 30.3 28 Nordeste 51 Nordeste 0 -- -- 44
2020-07-30 13:00:00 27.6 36 Nordeste 51 Nordeste 0 -- -- 50
2020-07-30 12:00:00 26.5 30 Nordeste 45 Norte 0 -- -- 53
2020-07-30 11:00:00 24.4 28 Norte 39 Norte 0 -- -- 58
2020-07-30 10:00:00 23 12 Norte 30 Norte 0 -- -- 61
2020-07-30 09:00:00 20.8 15 Norte 48 Norte 0 -- -- 70
2020-07-30 08:00:00 18.7 29 Norte 48 Norte 0 -- -- 76
2020-07-30 07:00:00 18.3 27 Norte 49 Nordeste 0 -- -- 78
2020-07-30 06:00:00 18.5 19 Nordeste 43 Nordeste 0 -- -- 74
2020-07-30 05:00:00 17.9 5 Este 36 Nordeste 0 -- -- 78
2020-07-30 04:00:00 18.6 3 Noroeste 11 Sur 0 -- -- 76
2020-07-30 03:00:00 19.6 3 Oeste 36 Norte 0 -- -- 72
2020-07-30 02:00:00 20 18 Nordeste 42 Norte 0 -- -- 66
2020-07-30 01:00:00 20.5 11 Norte 43 Norte 0 -- -- 66
2020-07-30 00:00:00 21.1 11 Norte 46 Nordeste 0 -- -- 61
2020-07-29 23:00:00 20.8 21 Nordeste 42 Nordeste 0 -- -- 65
2020-07-29 22:00:00 20.6 26 Nordeste 48 Nordeste 0 -- -- 67
2020-07-29 21:00:00 21.5 31 Nordeste 49 Norte 0 -- -- 65
2020-07-29 20:00:00 23.5 33 Nordeste 50 Nordeste 0 -- -- 61
2020-07-29 19:00:00 26.9 28 Norte 56 Nordeste 0 -- -- 51
2020-07-29 18:00:00 26.4 40 Nordeste 64 Nordeste 0 -- -- 53
2020-07-29 17:00:00 27.6 39 Nordeste 68 Norte 0 -- -- 52
2020-07-29 16:00:00 27.9 44 Nordeste 66 Nordeste 0 -- -- 49
2020-07-29 15:00:00 28.2 42 Norte 66 Norte 0 -- -- 50
2020-07-29 14:00:00 28.5 42 Norte 64 Nordeste 0 -- -- 47
2020-07-29 13:00:00 26.1 45 Norte 70 Norte 0 -- -- 54
2020-07-29 12:00:00 25.1 46 Norte 77 Norte 0 -- -- 56
2020-07-29 11:00:00 23.5 53 Norte 73 Norte 0 -- -- 62
2020-07-29 10:00:00 22.2 49 Norte 70 Norte 0 -- -- 67
2020-07-29 09:00:00 21.2 45 Norte 68 Norte 0 -- -- 68
2020-07-29 08:00:00 19.7 41 Norte 63 Norte 0 -- -- 73
2020-07-29 07:00:00 19.6 35 Norte 52 Norte 0 -- -- 72
2020-07-29 06:00:00 19.3 9 Sudoeste 25 Norte 0 -- -- 87
2020-07-29 05:00:00 19.3 4 Oeste 43 Nordeste 0 -- -- 84
2020-07-29 04:00:00 20.8 12 Norte 50 Norte 0 -- -- 78
2020-07-29 03:00:00 21.2 24 Norte 61 Nordeste 0 -- -- 58
2020-07-29 02:00:00 21.4 40 Norte 58 Norte 0 -- -- 60
2020-07-29 01:00:00 21 39 Norte 60 Norte 0 -- -- 65
2020-07-29 00:00:00 21.3 30 Norte 52 Nordeste 0 -- -- 68
2020-07-28 23:00:00 22.6 13 Norte 41 Norte 0 -- -- 57
2020-07-28 22:00:00 23.3 28 Norte 46 Nordeste 0 -- -- 52
2020-07-28 21:00:00 23.4 32 Norte 53 Norte 0 -- -- 59
2020-07-28 20:00:00 25.1 32 Norte 60 Norte 0 -- -- 57
2020-07-28 19:00:00 25.7 40 Norte 63 Norte 0 -- -- 58
2020-07-28 18:00:00 26.5 45 Norte 60 Norte 0 -- -- 56
2020-07-28 17:00:00 28.6 37 Norte 59 Norte 0 -- -- 50
2020-07-28 16:00:00 29.5 40 Norte 64 Norte 0 -- -- 47
2020-07-28 15:00:00 29.5 39 Norte 60 Norte 0 -- -- 49
2020-07-28 14:00:00 31.7 36 Norte 54 Norte 0 -- -- 43
2020-07-28 13:00:00 29.6 40 Norte 55 Nordeste 0 -- -- 47
2020-07-28 12:00:00 29.1 36 Norte 54 Nordeste 0 -- -- 48
2020-07-28 11:00:00 30.2 36 Norte 54 Norte 0 -- -- 32
2020-07-28 10:00:00 28.9 36 Norte 51 Norte 0 -- -- 34
2020-07-28 09:00:00 27.5 30 Norte 49 Norte 0 -- -- 33
2020-07-28 08:00:00 26.4 30 Norte 57 Norte 0 -- -- 33
2020-07-28 07:00:00 26.9 40 Norte 58 Norte 0 -- -- 33
2020-07-28 06:00:00 26.1 36 Norte 55 Norte 0 -- -- 35
2020-07-28 05:00:00 27 36 Norte 57 Norte 0 -- -- 29
2020-07-28 04:00:00 26.3 39 Norte 63 Nordeste 0 -- -- 35
2020-07-28 03:00:00 27.7 38 Norte 59 Norte 0 -- -- 27
2020-07-28 02:00:00 28.3 39 Norte 59 Norte 0 -- -- 26
2020-07-28 01:00:00 25.2 42 Norte 58 Nordeste 0 -- -- 44
2020-07-28 00:00:00 24.7 41 Norte 62 Nordeste 0 -- -- 46
2020-07-27 23:00:00 24.5 37 Norte 62 Norte 0 -- -- 52
2020-07-27 22:00:00 26 24 Nordeste 48 Norte 0 -- -- 42
2020-07-27 21:00:00 25.9 27 Norte 46 Norte 0 -- -- 49
2020-07-27 20:00:00 27.3 30 Nordeste 43 Nordeste 0 -- -- 50
2020-07-27 19:00:00 32.6 29 Nordeste 44 Norte 0 -- -- 22
2020-07-27 18:00:00 32.6 28 Norte 48 Norte 0 -- -- 30
2020-07-27 17:00:00 30.6 36 Nordeste 51 Nordeste 0 -- -- 45
2020-07-27 16:00:00 31.7 33 Nordeste 51 Norte 0 -- -- 40
2020-07-27 15:00:00 31.5 36 Norte 52 Norte 0 -- -- 38
2020-07-27 14:00:00 33.5 32 Nordeste 48 Norte 0 -- -- 30
2020-07-27 13:00:00 32.4 29 Nordeste 48 Nordeste 0 -- -- 39
2020-07-27 12:00:00 31.1 29 Norte 52 Norte 0 -- -- 33
2020-07-27 11:00:00 25 39 Nordeste 65 Nordeste 0 -- -- 57
2020-07-27 08:00:00 -- -- -- -- -- -- -- -- --
2020-07-27 07:00:00 -- -- -- -- -- -- -- -- --
2020-07-27 06:00:00 27.1 37 Norte 54 Norte 0 -- -- 22
2020-07-27 05:00:00 23.9 29 Norte 62 Norte 0 -- -- 48
2020-07-27 04:00:00 21.4 43 Norte 64 Norte 0 -- -- 58
2020-07-27 03:00:00 23 41 Norte 58 Norte 0 -- -- 45
2020-07-27 02:00:00 20.6 44 Norte 63 Norte 0 -- -- 69
2020-07-27 01:00:00 24.5 30 Nordeste 49 Norte 0 -- -- 44
2020-07-27 00:00:00 24.9 26 Norte 37 Norte 0 -- -- 31
2020-07-26 23:00:00 22.5 7 Noroeste 31 Norte 0 -- -- 55
2020-07-26 22:00:00 23 17 Norte 43 Norte 0 -- -- 55
2020-07-26 21:00:00 23 32 Norte 47 Norte 0 -- -- 58
2020-07-26 20:00:00 28.2 24 Norte 41 Norte 0 -- -- 41
2020-07-26 19:00:00 27.3 35 Norte 54 Norte 0 -- -- 49
2020-07-26 18:00:00 27.4 39 Norte 60 Nordeste 0 -- -- 52
2020-07-26 17:00:00 27.7 44 Norte 65 Norte 0 -- -- 50
2020-07-26 16:00:00 28.9 44 Norte 62 Norte 0 -- -- 48
2020-07-26 15:00:00 29.1 44 Norte 63 Norte 0 -- -- 46
2020-07-26 14:00:00 31 38 Norte 59 Norte 0 -- -- 40
2020-07-26 13:00:00 31.3 32 Norte 54 Norte 0 -- -- 40
2020-07-26 12:00:00 31.2 36 Norte 56 Norte 0 -- -- 37
2020-07-26 11:00:00 29.5 38 Norte 56 Norte 0 -- -- 38
2020-07-26 10:00:00 28.3 36 Norte 55 Norte 0 -- -- 36
2020-07-26 09:00:00 27.4 30 Norte 46 Norte 0 -- -- 37
2020-07-26 08:00:00 24.1 27 Norte 49 Norte 0 -- -- 45
2020-07-26 07:00:00 26.4 30 Norte 49 Norte 0 -- -- 33
2020-07-26 06:00:00 26.6 35 Norte 54 Norte 0 -- -- 32
2020-07-26 05:00:00 27 31 Norte 52 Norte 0 -- -- 29
2020-07-26 04:00:00 26.5 34 Norte 51 Norte 0 -- -- 26
2020-07-26 03:00:00 27.6 33 Norte 51 Norte 0 -- -- 21
2020-07-26 02:00:00 26.7 22 Norte 53 Norte 0 -- -- 22
2020-07-26 01:00:00 26.7 31 Norte 53 Norte 0 -- -- 24
2020-07-26 00:00:00 23.1 30 Nordeste 46 Norte 0 -- -- 47
2020-07-25 23:00:00 23.4 32 Norte 49 Norte 0 -- -- 43
2020-07-25 22:00:00 24.1 33 Norte 48 Norte 0 -- -- 41
2020-07-25 21:00:00 27.7 27 Norte 49 Norte 0 -- -- 28
2020-07-25 20:00:00 29.9 34 Norte 62 Norte 0 -- -- 18
2020-07-25 19:00:00 31.2 42 Norte 63 Norte 0 -- -- 17
2020-07-25 18:00:00 32.2 39 Norte 60 Nordeste 0 -- -- 19
2020-07-25 17:00:00 33 36 Norte 62 Nordeste 0 -- -- 20
2020-07-25 16:00:00 33.2 41 Norte 67 Norte 0 -- -- 23
2020-07-25 15:00:00 33.3 45 Norte 65 Norte 0 -- -- 21
2020-07-25 14:00:00 32.3 42 Norte 62 Nordeste 0 -- -- 25
2020-07-25 13:00:00 32 44 Norte 67 Norte 0 -- -- 27
2020-07-25 12:00:00 31.1 47 Norte 67 Norte 0 -- -- 27
2020-07-25 11:00:00 29.8 45 Norte 63 Norte 0 -- -- 30
2020-07-25 10:00:00 28.7 38 Norte 59 Norte 0 -- -- 33
2020-07-25 09:00:00 27.7 33 Norte 56 Norte 0 -- -- 32
2020-07-25 08:00:00 26.8 33 Norte 52 Norte 0 -- -- 27
2020-07-25 07:00:00 26.9 23 Nordeste 36 Nordeste 0 -- -- 17
2020-07-25 06:00:00 19.4 8 Sudoeste 25 Norte 0 -- -- 73
2020-07-25 05:00:00 19.6 5 Sur 14 Sudoeste 0 -- -- 76
2020-07-25 04:00:00 20.8 8 Sudoeste 28 Nordeste 0 -- -- 72
2020-07-25 03:00:00 26.2 15 Nordeste 26 Nordeste 0 -- -- 20
2020-07-25 02:00:00 28.7 16 Nordeste 39 Norte 0 -- -- 17
2020-07-25 01:00:00 29.4 22 Norte 41 Norte 0 -- -- 16
2020-07-25 00:00:00 29.2 21 Norte 41 Norte 0 -- -- 18
2020-07-24 23:00:00 26.6 17 Nordeste 32 Nordeste 0 -- -- 28
2020-07-24 22:00:00 25.1 6 Sudeste 27 Norte 0 -- -- 58
2020-07-24 21:00:00 24.5 3 Sur 20 Sur 0 -- -- 63
2020-07-24 20:00:00 29 9 Nordeste 27 Norte 0 -- -- 45
2020-07-24 19:00:00 29.2 14 Noroeste 38 Norte 0 -- -- 48
2020-07-24 18:00:00 30.5 30 Nordeste 49 Nordeste 0 -- -- 44
2020-07-24 17:00:00 32.1 32 Nordeste 48 Nordeste 0 -- -- 41
2020-07-24 16:00:00 33.8 34 Nordeste 51 Nordeste 0 -- -- 31
2020-07-24 15:00:00 32.6 35 Nordeste 49 Nordeste 0 -- -- 38
2020-07-24 14:00:00 32.1 33 Nordeste 49 Nordeste 0 -- -- 39
2020-07-24 13:00:00 32.5 28 Nordeste 49 Norte 0 -- -- 38
2020-07-24 12:00:00 30.9 30 Nordeste 52 Nordeste 0 -- -- 40
2020-07-24 11:00:00 31.8 32 Norte 54 Norte 0 -- -- 32
2020-07-24 10:00:00 31.2 34 Norte 51 Norte 0 -- -- 26
2020-07-24 09:00:00 30.4 31 Norte 50 Norte 0 -- -- 18
2020-07-24 08:00:00 30.2 33 Norte 55 Norte 0 -- -- 14
2020-07-24 07:00:00 30.1 37 Norte 52 Nordeste 0 -- -- 13
2020-07-24 06:00:00 29.5 37 Norte 56 Norte 0 -- -- 19
2020-07-24 05:00:00 29.3 35 Norte 54 Norte 0 -- -- 21
2020-07-24 04:00:00 30 38 Norte 57 Norte 0 -- -- 22
2020-07-24 03:00:00 29.9 38 Norte 58 Norte 0 -- -- 22
2020-07-24 02:00:00 29.9 38 Norte 62 Norte 0 -- -- 22
2020-07-24 01:00:00 30.1 42 Norte 61 Norte 0 -- -- 22
2020-07-24 00:00:00 30.4 39 Norte 56 Norte 0 -- -- 21
2020-07-23 23:00:00 30.5 36 Norte 51 Norte 0 -- -- 21
2020-07-23 22:00:00 30.4 35 Norte 51 Norte 0 -- -- 21
2020-07-23 21:00:00 30.4 34 Norte 52 Norte 0 -- -- 22
2020-07-23 20:00:00 30.8 38 Norte 54 Norte 0 -- -- 23
2020-07-23 19:00:00 32 36 Norte 55 Norte 0 -- -- 25
2020-07-23 18:00:00 32.9 33 Norte 51 Norte 0 -- -- 27
2020-07-23 17:00:00 34.1 33 Norte 54 Norte 0 -- -- 25
2020-07-23 16:00:00 34 32 Norte 54 Nordeste 0 -- -- 31
2020-07-23 15:00:00 34.1 35 Norte 57 Nordeste 0 -- -- 28
2020-07-23 14:00:00 33.6 39 Norte 57 Norte 0 -- -- 25
2020-07-23 13:00:00 33.6 39 Norte 58 Norte 0 -- -- 26
2020-07-23 12:00:00 32.4 36 Norte 54 Norte 0 -- -- 28
2020-07-23 11:00:00 31.1 35 Norte 51 Norte 0 -- -- 32
2020-07-23 10:00:00 30.8 35 Norte 52 Norte 0 -- -- 27
2020-07-23 09:00:00 30.2 32 Norte 55 Norte 0 -- -- 23
2020-07-23 08:00:00 29.1 37 Norte 58 Norte 0 -- -- 24
2020-07-23 07:00:00 28.9 41 Norte 59 Norte 0 -- -- 25
2020-07-23 06:00:00 28.6 40 Norte 58 Norte 0 -- -- 26
2020-07-23 05:00:00 27.9 39 Norte 63 Norte 0 -- -- 28
2020-07-23 04:00:00 27.2 42 Norte 59 Norte 0 -- -- 30
2020-07-23 03:00:00 27 39 Norte 60 Norte 0 -- -- 31
2020-07-23 02:00:00 27.9 39 Norte 55 Norte 0 -- -- 24
2020-07-23 01:00:00 28 33 Norte 59 Norte 0 -- -- 24
2020-07-23 00:00:00 27 40 Norte 55 Norte 0 -- -- 27
2020-07-22 23:00:00 28.2 24 Norte 36 Norte 0 -- -- 16
2020-07-22 22:00:00 22.2 3 Norte 28 Este 0 -- -- 63
2020-07-22 21:00:00 23.8 11 Este 45 Nordeste 0 -- -- 62
2020-07-22 20:00:00 23 34 Nordeste 55 Nordeste 0 -- -- 67
2020-07-22 19:00:00 24.9 40 Nordeste 58 Nordeste 0 -- -- 61
2020-07-22 18:00:00 27.8 33 Nordeste 60 Nordeste 0 -- -- 53
2020-07-22 17:00:00 27.8 43 Nordeste 64 Nordeste 0 -- -- 52
2020-07-22 16:00:00 28.2 40 Nordeste 62 Norte 0 -- -- 52
2020-07-22 15:00:00 28.5 35 Nordeste 57 Norte 0 -- -- 52
2020-07-22 14:00:00 28.4 39 Nordeste 60 Nordeste 0 -- -- 52
2020-07-22 13:00:00 27.3 42 Nordeste 60 Nordeste 0 -- -- 54
2020-07-22 12:00:00 26 42 Nordeste 63 Nordeste 0 -- -- 56
2020-07-22 11:00:00 24.2 40 Norte 59 Norte 0 -- -- 61
2020-07-22 10:00:00 23.9 13 Norte 50 Norte 0 -- -- 62
2020-07-22 09:00:00 21.7 23 Norte 41 Norte 0 -- -- 69
2020-07-22 08:00:00 20.3 5 Noroeste 42 Norte 0 -- -- 74
2020-07-22 07:00:00 19.8 24 Norte 40 Norte 0 -- -- 72
2020-07-22 06:00:00 20.4 30 Norte 49 Norte 0 -- -- 68
2020-07-22 05:00:00 19.6 3 Norte 37 Nordeste 0 -- -- 77
2020-07-22 04:00:00 20 17 Norte 45 Nordeste 0 -- -- 72
2020-07-22 03:00:00 20.4 32 Norte 53 Norte 0 -- -- 71
2020-07-22 02:00:00 19.9 5 Norte 22 Nordeste 0 -- -- 71
2020-07-22 01:00:00 20.7 3 Sur 38 Norte 0 -- -- 69
2020-07-22 00:00:00 20.4 24 Norte 54 Nordeste 0 -- -- 71
2020-07-21 23:00:00 21.5 6 Norte 55 Nordeste 0 -- -- 63
2020-07-21 22:00:00 21 30 Norte 46 Norte 0 -- -- 68
2020-07-21 21:00:00 21.2 34 Norte 58 Norte 0 -- -- 70
2020-07-21 20:00:00 22.8 33 Norte 58 Norte 0 -- -- 64
2020-07-21 19:00:00 25.3 37 Nordeste 66 Nordeste 0 -- -- 57
2020-07-21 18:00:00 27.3 37 Nordeste 60 Norte 0 -- -- 52
2020-07-21 17:00:00 27.8 36 Nordeste 53 Norte 0 -- -- 49
2020-07-21 16:00:00 28.2 39 Norte 64 Norte 0 -- -- 47
2020-07-21 15:00:00 27.7 42 Norte 63 Norte 0 -- -- 49
2020-07-21 14:00:00 27.6 44 Norte 62 Norte 0 -- -- 49
2020-07-21 13:00:00 28.1 37 Norte 60 Norte 0 -- -- 48
2020-07-21 12:00:00 26.8 38 Norte 56 Norte 0 -- -- 51
2020-07-21 11:00:00 26 27 Nordeste 57 Nordeste 0 -- -- 52
2020-07-21 10:00:00 22.6 40 Norte 62 Nordeste 0 -- -- 62
2020-07-21 09:00:00 21.2 35 Norte 62 Norte 0 -- -- 68
2020-07-21 08:00:00 19.6 32 Norte 63 Norte 0 -- -- 73
2020-07-21 07:00:00 19.7 44 Norte 64 Norte 0 -- -- 73
2020-07-21 06:00:00 19.5 41 Nordeste 62 Norte 0 -- -- 75
2020-07-21 05:00:00 19.7 46 Norte 76 Norte 0 -- -- 74
2020-07-21 04:00:00 20.1 46 Norte 66 Nordeste 0 -- -- 71
2020-07-21 03:00:00 20.9 44 Norte 65 Norte 0 -- -- 65
2020-07-21 02:00:00 27.1 33 Norte 60 Norte 0 -- -- 36
2020-07-21 01:00:00 29.4 42 Norte 66 Norte 0 -- -- 19
2020-07-21 00:00:00 26.2 39 Norte 55 Norte 0 -- -- 26
2020-07-20 23:00:00 25.9 29 Norte 59 Nordeste 0 -- -- 32
2020-07-20 22:00:00 22.6 45 Nordeste 63 Norte 0 -- -- 56
2020-07-20 21:00:00 23.4 50 Norte 63 Norte 0 -- -- 59
2020-07-20 20:00:00 27.9 31 Nordeste 47 Norte 0 -- -- 41
2020-07-20 19:00:00 31.2 27 Norte 55 Nordeste 0 -- -- 24
2020-07-20 18:00:00 31.2 36 Norte 60 Norte 0 -- -- 39
2020-07-20 17:00:00 32.9 31 Nordeste 61 Nordeste 0 -- -- 37
2020-07-20 16:00:00 33.7 32 Nordeste 54 Norte 0 -- -- 34
2020-07-20 15:00:00 31.8 40 Norte 65 Norte 0 -- -- 38
2020-07-20 14:00:00 29.5 44 Nordeste 62 Nordeste 0 -- -- 45
2020-07-20 13:00:00 30 44 Nordeste 62 Nordeste 0 -- -- 44
2020-07-20 12:00:00 31.5 41 Norte 58 Norte 0 -- -- 36
2020-07-20 11:00:00 30.4 38 Norte 52 Norte 0 -- -- 39
2020-07-20 10:00:00 31.1 33 Norte 51 Nordeste 0 -- -- 30
2020-07-20 09:00:00 29.7 26 Nordeste 46 Nordeste 0 -- -- 26
2020-07-20 08:00:00 30.9 29 Nordeste 56 Norte 0 -- -- 18
2020-07-20 07:00:00 31.4 39 Norte 60 Norte 0 -- -- 17
2020-07-20 06:00:00 31.8 41 Norte 59 Norte 0 -- -- 18
2020-07-20 05:00:00 32.2 38 Norte 56 Norte 0 -- -- 17
2020-07-20 04:00:00 32.5 36 Norte 59 Norte 0 -- -- 15
2020-07-20 03:00:00 32.7 38 Norte 60 Norte 0 -- -- 19
2020-07-20 02:00:00 31.8 40 Norte 62 Norte 0 -- -- 24
2020-07-20 01:00:00 32.5 41 Norte 66 Norte 0 -- -- 24
2020-07-20 00:00:00 32.5 42 Norte 62 Norte 0 -- -- 24
2020-07-19 23:00:00 32.9 39 Norte 70 Norte 0 -- -- 23
2020-07-19 22:00:00 32.1 45 Norte 67 Norte 0 -- -- 23
2020-07-19 21:00:00 32.9 41 Norte 61 Norte 0 -- -- 21
2020-07-19 20:00:00 34.1 38 Norte 61 Norte 0 -- -- 20
2020-07-19 19:00:00 35.2 40 Norte 71 Norte 0 -- -- 19
2020-07-19 18:00:00 36.2 43 Norte 62 Norte 0 -- -- 17
2020-07-19 17:00:00 37.2 40 Norte 63 Norte 0 -- -- 16
2020-07-19 16:00:00 37.7 38 Norte 65 Norte 0 -- -- 16
2020-07-19 15:00:00 37.9 41 Norte 63 Nordeste 0 -- -- 17
2020-07-19 14:00:00 37.4 42 Norte 59 Norte 0 -- -- 18
2020-07-19 13:00:00 37.4 36 Norte 58 Norte 0 -- -- 22
2020-07-19 12:00:00 35.8 39 Norte 62 Norte 0 -- -- 23
2020-07-19 11:00:00 35 38 Norte 64 Norte 0 -- -- 24
2020-07-19 10:00:00 33 40 Norte 63 Norte 0 -- -- 25
2020-07-19 09:00:00 31.9 37 Norte 55 Norte 0 -- -- 27
2020-07-19 08:00:00 30.9 35 Norte 52 Norte 0 -- -- 28
2020-07-19 07:00:00 29.8 32 Norte 55 Norte 0 -- -- 29
2020-07-19 06:00:00 30.7 31 Norte 53 Norte 0 -- -- 30
2020-07-19 05:00:00 30.8 32 Norte 55 Norte 0 -- -- 30
2020-07-19 04:00:00 31 33 Norte 51 Norte 0 -- -- 30
2020-07-19 03:00:00 31.3 31 Norte 55 Norte 0 -- -- 29
2020-07-19 02:00:00 31.4 36 Norte 55 Norte 0 -- -- 29
2020-07-19 01:00:00 31.1 33 Norte 53 Norte 0 -- -- 29
2020-07-19 00:00:00 32 32 Norte 49 Norte 0 -- -- 23
2020-07-18 23:00:00 33.1 33 Norte 53 Norte 0 -- -- 18
2020-07-18 22:00:00 33.1 32 Norte 54 Norte 0 -- -- 18
2020-07-18 21:00:00 33.4 30 Norte 46 Norte 0 -- -- 18
2020-07-18 20:00:00 34.3 31 Norte 49 Norte 0 -- -- 20
2020-07-18 19:00:00 35.6 30 Norte 52 Norte 0 -- -- 19
2020-07-18 18:00:00 36.3 38 Norte 51 Norte 0 -- -- 19
2020-07-18 17:00:00 36.9 33 Norte 53 Nordeste 0 -- -- 22
2020-07-18 16:00:00 36.3 36 Nordeste 51 Nordeste 0 -- -- 24
2020-07-18 15:00:00 36.6 29 Nordeste 53 Nordeste 0 -- -- 29
2020-07-18 14:00:00 35.6 32 Nordeste 46 Nordeste 0 -- -- 27
2020-07-18 13:00:00 35.6 27 Nordeste 42 Nordeste 0 -- -- 29
2020-07-18 12:00:00 34.7 27 Nordeste 40 Nordeste 0 -- -- 30
2020-07-18 11:00:00 33.7 24 Nordeste 35 Nordeste 0 -- -- 29
2020-07-18 10:00:00 31.3 21 Nordeste 39 Nordeste 0 -- -- 31
2020-07-18 09:00:00 29 22 Nordeste 33 Nordeste 0 -- -- 33
2020-07-18 08:00:00 23.4 4 Sudoeste 23 Nordeste 0 -- -- 58
2020-07-18 07:00:00 25.5 16 Nordeste 29 Nordeste 0 -- -- 32
2020-07-18 06:00:00 20.7 6 Sudoeste 9 Sudoeste 0 -- -- 85
2020-07-18 05:00:00 21.3 5 Sudoeste 13 Sur 0 -- -- 83
2020-07-18 04:00:00 21.2 4 Sur 9 Nordeste 0 -- -- 76
2020-07-18 03:00:00 20.4 6 Sur 9 Nordeste 0 -- -- 90
2020-07-18 02:00:00 20.9 2 Sudeste 10 Sur 0 -- -- 89
2020-07-18 01:00:00 24 9 Nordeste 20 Nordeste 0 -- -- 68
2020-07-18 00:00:00 21.9 2 Sudoeste 9 Sur 0 -- -- 83
2020-07-17 23:00:00 23.3 6 Sur 10 Noroeste 0 -- -- 73
2020-07-17 22:00:00 24.8 3 Sudoeste 9 Sudoeste 0 -- -- 66
2020-07-17 21:00:00 25.8 8 Sudoeste 11 Sudeste 0 -- -- 62
2020-07-17 20:00:00 28 6 Sur 14 Sur 0 -- -- 54
2020-07-17 19:00:00 28.9 8 Sur 18 Sudoeste 0 -- -- 54
2020-07-17 18:00:00 30.3 17 Sudoeste 27 Nordeste 0 -- -- 52
2020-07-17 17:00:00 34.3 10 Nordeste 18 Nordeste 0 -- -- 33
2020-07-17 16:00:00 30.6 8 Sudeste 23 Sudoeste 0 -- -- 50
2020-07-17 15:00:00 29.8 7 Sudeste 22 Este 0 -- -- 50
2020-07-17 14:00:00 30.4 16 Nordeste 27 Sur 0 -- -- 51
2020-07-17 13:00:00 29.9 11 Sur 19 Sur 0 -- -- 52
2020-07-17 12:00:00 28.3 9 Sur 20 Sur 0 -- -- 55
2020-07-17 11:00:00 26.9 9 Este 13 Nordeste 0 -- -- 60
2020-07-17 10:00:00 23.2 6 Sur 13 Sur 0 -- -- 75
2020-07-17 09:00:00 23.6 4 Sur 10 Sur 0 -- -- 67
2020-07-17 08:00:00 23.1 7 Nordeste 27 Sur 0 -- -- 50
2020-07-17 07:00:00 23.5 5 Norte 21 Sur 0 -- -- 45
2020-07-17 06:00:00 25.3 14 Nordeste 22 Nordeste 0 -- -- 39
2020-07-17 05:00:00 21.4 2 Norte 9 Oeste 0 -- -- 65
2020-07-17 04:00:00 19.8 4 Sur 7 Sur 0 -- -- 84
2020-07-17 03:00:00 20 4 Sur 7 Sur 0 -- -- 86
2020-07-17 02:00:00 20.2 0 Calma 9 Sur 0 -- -- 85
2020-07-17 01:00:00 20.8 4 Sur 8 Sur 0 -- -- 85
2020-07-17 00:00:00 21.3 0 Calma 6 Sur 0 -- -- 81
2020-07-16 23:00:00 21.8 5 Sudoeste 9 Sur 0 -- -- 74
2020-07-16 22:00:00 22.8 5 Sur 12 Sudoeste 0 -- -- 74
2020-07-16 21:00:00 24.3 8 Sudoeste 13 Sudoeste 0 -- -- 68
2020-07-16 20:00:00 25.8 6 Sur 19 Sur 0 -- -- 62
2020-07-16 19:00:00 28.4 16 Sudoeste 35 Nordeste 0 -- -- 55
2020-07-16 18:00:00 33 22 Nordeste 33 Nordeste 0 -- -- 34
2020-07-16 17:00:00 33.2 20 Nordeste 31 Nordeste 0 -- -- 34
2020-07-16 16:00:00 32.8 20 Nordeste 33 Nordeste 0 -- -- 37
2020-07-16 15:00:00 31.9 24 Nordeste 33 Nordeste 0 -- -- 44
2020-07-16 14:00:00 30.8 22 Nordeste 34 Nordeste 0 -- -- 48
2020-07-16 13:00:00 29.6 24 Nordeste 35 Nordeste 0 -- -- 50
2020-07-16 12:00:00 29 19 Nordeste 27 Nordeste 0 -- -- 52
2020-07-16 11:00:00 28.4 8 Nordeste 19 Nordeste 0 -- -- 52
2020-07-16 10:00:00 26.1 4 Sur 17 Nordeste 0 -- -- 58
2020-07-16 09:00:00 22 13 Nordeste 18 Nordeste 0 -- -- 72
2020-07-16 08:00:00 19.4 2 Este 5 Nordeste 0 -- -- 82
2020-07-16 07:00:00 19.5 0 Calma 7 Sudoeste 0 -- -- 83
2020-07-16 06:00:00 19.8 6 Sudoeste 13 Sur 0 -- -- 84
2020-07-16 05:00:00 20.5 8 Sur 23 Norte 0 -- -- 76
2020-07-16 04:00:00 20.8 12 Norte 32 Nordeste 0 -- -- 71
2020-07-16 03:00:00 21.6 15 Nordeste 27 Nordeste 0 -- -- 68
2020-07-16 02:00:00 22.7 12 Nordeste 27 Norte 0 -- -- 55
2020-07-16 01:00:00 27.1 12 Nordeste 34 Norte 0 -- -- 47
2020-07-16 00:00:00 28.9 24 Norte 42 Norte 0 -- -- 32
2020-07-15 23:00:00 29.7 34 Norte 49 Norte 0 -- -- 30
2020-07-15 22:00:00 30.1 33 Norte 48 Norte 0 -- -- 30
2020-07-15 21:00:00 30.4 31 Norte 51 Norte 0 -- -- 30
2020-07-15 20:00:00 30.2 32 Norte 48 Norte 0 -- -- 32
2020-07-15 19:00:00 31 29 Norte 49 Norte 0 -- -- 35
2020-07-15 18:00:00 31.4 32 Norte 50 Norte 0 -- -- 38
2020-07-15 17:00:00 32.5 29 Norte 50 Norte 0 -- -- 36
2020-07-15 16:00:00 32.4 31 Norte 48 Norte 0 -- -- 41
2020-07-15 15:00:00 33.1 37 Norte 50 Nordeste 0 -- -- 32
2020-07-15 14:00:00 33.7 31 Norte 47 Norte 0 -- -- 31
2020-07-15 13:00:00 33.9 29 Norte 50 Norte 0 -- -- 27
2020-07-15 12:00:00 33 30 Norte 46 Norte 0 -- -- 22
2020-07-15 11:00:00 27.7 9 Sur 31 Nordeste 0 -- -- 35
2020-07-15 10:00:00 24.7 9 Sur 18 Sur 0 -- -- 64
2020-07-15 09:00:00 24.5 11 Sur 37 Norte 0 -- -- 63
2020-07-15 08:00:00 29.1 27 Norte 50 Norte 0 -- -- 27
2020-07-15 07:00:00 28.8 31 Norte 51 Nordeste 0 -- -- 27
2020-07-15 06:00:00 28.7 35 Norte 55 Norte 0 -- -- 27
2020-07-15 05:00:00 28.6 39 Norte 61 Norte 0 -- -- 29
2020-07-15 04:00:00 28.3 37 Norte 58 Norte 0 -- -- 31
2020-07-15 03:00:00 28.4 40 Norte 62 Norte 0 -- -- 31
2020-07-15 02:00:00 28.6 37 Norte 64 Norte 0 -- -- 31
2020-07-15 01:00:00 28.3 39 Norte 64 Norte 0 -- -- 32
2020-07-15 00:00:00 28.1 39 Norte 64 Norte 0 -- -- 31
2020-07-14 23:00:00 27.8 39 Norte 66 Norte 0 -- -- 31
2020-07-14 22:00:00 27.3 41 Norte 69 Norte 0 -- -- 32
2020-07-14 21:00:00 27.5 36 Norte 59 Norte 0 -- -- 34
2020-07-14 20:00:00 28.7 40 Norte 60 Norte 0 -- -- 37
2020-07-14 19:00:00 29.6 39 Norte 68 Norte 0 -- -- 38
2020-07-14 18:00:00 31.1 39 Norte 60 Norte 0 -- -- 35
2020-07-14 17:00:00 32.3 35 Norte 55 Norte 0 -- -- 34
2020-07-14 16:00:00 33.3 15 Norte 37 Nordeste 0 -- -- 34
2020-07-14 15:00:00 32.7 9 Sur 39 Nordeste 0 -- -- 41
2020-07-14 14:00:00 33.8 27 Norte 42 Norte 0 -- -- 29
2020-07-14 13:00:00 29.8 6 Sudoeste 21 Sur 0 -- -- 40
2020-07-14 12:00:00 26.8 18 Sur 27 Sur 0 -- -- 58
2020-07-14 11:00:00 24.8 15 Sur 22 Sur 0 -- -- 63
2020-07-14 10:00:00 23 8 Sur 16 Sur 0 -- -- 70
2020-07-14 09:00:00 20.2 6 Sudoeste 12 Sudoeste 0 -- -- 85
2020-07-14 08:00:00 18.2 4 Sudoeste 7 Sudoeste 0 -- -- 91
2020-07-14 07:00:00 17.5 3 Oeste 5 Sur 0 -- -- 90
2020-07-14 06:00:00 17.9 0 Calma 5 Oeste 0 -- -- 92
2020-07-14 05:00:00 18.6 5 Sur 16 Sur 0 -- -- 93
2020-07-14 04:00:00 18.7 6 Sudoeste 11 Sudoeste 0 -- -- 93
2020-07-14 03:00:00 18.9 3 Sudoeste 9 Sur 0 -- -- 92
2020-07-14 02:00:00 19.1 5 Sudoeste 11 Sur 0 -- -- 91
2020-07-14 01:00:00 19.3 5 Sudeste 17 Sur 0 -- -- 90
2020-07-14 00:00:00 20.4 13 Sur 26 Sur 0 -- -- 83
2020-07-13 23:00:00 20.3 21 Nordeste 37 Nordeste 0 -- -- 67
2020-07-13 22:00:00 20.4 26 Nordeste 41 Este 0 -- -- 71
2020-07-13 21:00:00 21.5 28 Nordeste 42 Nordeste 0 -- -- 68
2020-07-13 20:00:00 25.1 13 Nordeste 33 Norte 0 -- -- 53
2020-07-13 19:00:00 26.3 25 Nordeste 51 Nordeste 0 -- -- 53
2020-07-13 18:00:00 28.6 32 Nordeste 52 Norte 0 -- -- 47
2020-07-13 17:00:00 31 32 Nordeste 49 Nordeste 0 -- -- 38
2020-07-13 16:00:00 32.1 33 Nordeste 49 Norte 0 -- -- 31
2020-07-13 15:00:00 30.9 29 Nordeste 40 Nordeste 0 -- -- 43
2020-07-13 14:00:00 30.5 27 Nordeste 41 Nordeste 0 -- -- 45
2020-07-13 13:00:00 29.4 24 Nordeste 37 Nordeste 0 -- -- 48
2020-07-13 12:00:00 28.7 26 Nordeste 38 Nordeste 0 -- -- 50
2020-07-13 11:00:00 26.5 21 Nordeste 33 Nordeste 0 -- -- 56
2020-07-13 10:00:00 23.9 5 Sur 14 Sur 0 -- -- 63
2020-07-13 09:00:00 22.8 4 Sudoeste 8 Oeste 0 -- -- 63
2020-07-13 08:00:00 20.6 4 Este 11 Nordeste 0 -- -- 67
2020-07-13 07:00:00 22.1 6 Nordeste 28 Norte 0 -- -- 50
2020-07-13 06:00:00 23.4 10 Nordeste 31 Norte 0 -- -- 49
2020-07-13 05:00:00 27.1 20 Norte 37 Norte 0 -- -- 31
2020-07-13 04:00:00 27.3 18 Norte 30 Nordeste 0 -- -- 30
2020-07-13 03:00:00 28.3 23 Norte 44 Norte 0 -- -- 27
2020-07-13 02:00:00 28.2 26 Norte 45 Norte 0 -- -- 27
2020-07-13 01:00:00 27.9 22 Norte 48 Norte 0 -- -- 28
2020-07-13 00:00:00 28.4 34 Norte 50 Norte 0 -- -- 27
2020-07-12 23:00:00 22.3 14 Nordeste 22 Norte 0 -- -- 56
2020-07-12 22:00:00 23.8 4 Sur 24 Norte 0 -- -- 57
2020-07-12 21:00:00 28.2 18 Norte 36 Nordeste 0 -- -- 28
2020-07-12 20:00:00 27.9 23 Nordeste 39 Norte 0 -- -- 44
2020-07-12 19:00:00 29.7 24 Nordeste 40 Nordeste 0 -- -- 38
2020-07-12 18:00:00 30.8 28 Nordeste 44 Nordeste 0 -- -- 41
2020-07-12 17:00:00 31.6 30 Nordeste 43 Nordeste 0 -- -- 39
2020-07-12 16:00:00 31.7 29 Nordeste 41 Nordeste 0 -- -- 43
2020-07-12 15:00:00 32.4 24 Nordeste 45 Norte 0 -- -- 42
2020-07-12 14:00:00 32.1 28 Nordeste 42 Nordeste 0 -- -- 40
2020-07-12 13:00:00 32.7 27 Nordeste 46 Norte 0 -- -- 36
2020-07-12 12:00:00 31.1 33 Norte 47 Nordeste 0 -- -- 33
2020-07-12 11:00:00 31 34 Nordeste 50 Nordeste 0 -- -- 29
2020-07-12 10:00:00 29.7 30 Nordeste 42 Nordeste 0 -- -- 30
2020-07-12 09:00:00 28.5 26 Norte 41 Norte 0 -- -- 25
2020-07-12 08:00:00 27.1 26 Norte 39 Norte 0 -- -- 26
2020-07-12 07:00:00 26.8 24 Norte 44 Norte 0 -- -- 26
2020-07-12 06:00:00 26.3 27 Norte 43 Norte 0 -- -- 27
2020-07-12 05:00:00 26.4 27 Norte 43 Norte 0 -- -- 26
2020-07-12 04:00:00 27 29 Norte 47 Norte 0 -- -- 26
2020-07-12 03:00:00 26.8 32 Norte 52 Norte 0 -- -- 29
2020-07-12 02:00:00 27.1 35 Norte 59 Norte 0 -- -- 29
2020-07-12 01:00:00 26.9 35 Norte 58 Norte 0 -- -- 30
2020-07-12 00:00:00 28.3 33 Norte 55 Norte 0 -- -- 20
2020-07-11 23:00:00 28.8 32 Norte 47 Norte 0 -- -- 20
2020-07-11 22:00:00 29.2 26 Norte 54 Norte 0 -- -- 20
2020-07-11 21:00:00 29.5 35 Norte 51 Norte 0 -- -- 19
2020-07-11 20:00:00 30 31 Norte 47 Norte 0 -- -- 27
2020-07-11 19:00:00 31.3 29 Norte 59 Norte 0 -- -- 27
2020-07-11 18:00:00 32.3 30 Nordeste 49 Nordeste 0 -- -- 34
2020-07-11 17:00:00 34 32 Norte 54 Norte 0 -- -- 24
2020-07-11 16:00:00 34.2 37 Norte 60 Nordeste 0 -- -- 20
2020-07-11 15:00:00 34.5 34 Norte 57 Norte 0 -- -- 24
2020-07-11 14:00:00 33.8 35 Nordeste 53 Nordeste 0 -- -- 30
2020-07-11 13:00:00 33.5 34 Norte 52 Norte 0 -- -- 27
2020-07-11 12:00:00 32.8 32 Norte 51 Norte 0 -- -- 29
2020-07-11 11:00:00 32.1 25 Norte 48 Norte 0 -- -- 34
2020-07-11 10:00:00 30 23 Norte 35 Norte 0 -- -- 31
2020-07-11 09:00:00 29.4 18 Norte 45 Norte 0 -- -- 29
2020-07-11 08:00:00 27.3 21 Norte 43 Norte 0 -- -- 29
2020-07-11 07:00:00 26 22 Norte 42 Norte 0 -- -- 33
2020-07-11 06:00:00 27 24 Norte 50 Norte 0 -- -- 26
2020-07-11 05:00:00 27.6 31 Norte 55 Norte 0 -- -- 28
2020-07-11 04:00:00 27.1 32 Norte 49 Norte 0 -- -- 30
2020-07-11 03:00:00 26.8 25 Norte 44 Norte 0 -- -- 30
2020-07-11 02:00:00 26.9 32 Norte 48 Norte 0 -- -- 31
2020-07-11 01:00:00 20.7 7 Sudoeste 20 Nordeste 0 -- -- 80
2020-07-11 00:00:00 20.2 6 Sur 16 Sur 0 -- -- 82
2020-07-10 23:00:00 20.9 5 Sudoeste 13 Sudoeste 0 -- -- 76
2020-07-10 22:00:00 21.8 8 Sudoeste 13 Sur 0 -- -- 73
2020-07-10 21:00:00 24.9 6 Sudoeste 40 Norte 0 -- -- 59
2020-07-10 20:00:00 29.2 30 Norte 42 Norte 0 -- -- 31
2020-07-10 19:00:00 30.6 25 Norte 39 Nordeste 0 -- -- 36
2020-07-10 18:00:00 31 22 Norte 33 Norte 0 -- -- 37
2020-07-10 17:00:00 34.1 17 Norte 42 Norte 0 -- -- 19
2020-07-10 16:00:00 33.4 26 Norte 46 Nordeste 0 -- -- 29
2020-07-10 15:00:00 31.6 32 Nordeste 48 Nordeste 0 -- -- 40
2020-07-10 14:00:00 30.7 33 Nordeste 48 Nordeste 0 -- -- 41
2020-07-10 13:00:00 31.4 28 Nordeste 44 Norte 0 -- -- 38
2020-07-10 12:00:00 33 23 Norte 48 Norte 0 -- -- 21
2020-07-10 11:00:00 29.1 28 Nordeste 42 Nordeste 0 -- -- 37
2020-07-10 10:00:00 26.4 26 Nordeste 38 Nordeste 0 -- -- 44
2020-07-10 09:00:00 25.6 11 Noroeste 40 Nordeste 0 -- -- 39
2020-07-10 08:00:00 23.4 21 Nordeste 48 Norte 0 -- -- 49
2020-07-10 07:00:00 22.4 25 Norte 42 Norte 0 -- -- 40
2020-07-10 06:00:00 21.5 24 Norte 56 Nordeste 0 -- -- 57
2020-07-10 05:00:00 20.6 33 Norte 50 Nordeste 0 -- -- 60
2020-07-10 04:00:00 20.7 32 Norte 53 Norte 0 -- -- 60
2020-07-10 03:00:00 19.7 33 Norte 55 Nordeste 0 -- -- 68
2020-07-10 02:00:00 20.1 35 Nordeste 58 Norte 0 -- -- 68
2020-07-10 01:00:00 20.6 36 Norte 54 Norte 0 -- -- 68
2020-07-10 00:00:00 21.4 37 Norte 55 Norte 0 -- -- 62
2020-07-09 23:00:00 22.1 28 Norte 45 Norte 0 -- -- 56
2020-07-09 22:00:00 24.7 32 Norte 51 Norte 0 -- -- 46
2020-07-09 21:00:00 25.1 30 Norte 46 Norte 0 -- -- 49
2020-07-09 20:00:00 26.4 34 Norte 48 Norte 0 -- -- 48
2020-07-09 19:00:00 30 28 Norte 46 Norte 0 -- -- 40
2020-07-09 18:00:00 31.2 35 Norte 56 Nordeste 0 -- -- 38
2020-07-09 17:00:00 32.2 39 Norte 59 Norte 0 -- -- 35
2020-07-09 16:00:00 34.4 29 Nordeste 56 Norte 0 -- -- 30
2020-07-09 15:00:00 34 33 Nordeste 54 Nordeste 0 -- -- 28
2020-07-09 14:00:00 32.8 41 Nordeste 57 Nordeste 0 -- -- 35
2020-07-09 13:00:00 32.5 40 Nordeste 62 Nordeste 0 -- -- 35
2020-07-09 12:00:00 32.8 40 Nordeste 59 Nordeste 0 -- -- 29
2020-07-09 11:00:00 33 40 Norte 60 Nordeste 0 -- -- 20
2020-07-09 10:00:00 31.7 41 Nordeste 55 Norte 0 -- -- 18
2020-07-09 09:00:00 30.8 32 Norte 51 Norte 0 -- -- 12
2020-07-09 08:00:00 28.3 23 Nordeste 49 Norte 0 -- -- 13
2020-07-09 07:00:00 30.1 31 Norte 53 Norte 0 -- -- 9
2020-07-09 06:00:00 30.2 31 Norte 54 Norte 0 -- -- 10
2020-07-09 05:00:00 29.4 32 Norte 49 Norte 0 -- -- 13
2020-07-09 04:00:00 30 29 Norte 50 Norte 0 -- -- 13
2020-07-09 03:00:00 29.5 28 Norte 55 Norte 0 -- -- 15
2020-07-09 02:00:00 30.4 36 Norte 58 Norte 0 -- -- 15
2020-07-09 01:00:00 30.6 37 Norte 58 Norte 0 -- -- 17
2020-07-09 00:00:00 30.6 36 Norte 55 Norte 0 -- -- 19
2020-07-08 23:00:00 30.5 37 Norte 56 Norte 0 -- -- 21
2020-07-08 22:00:00 30.4 40 Norte 59 Norte 0 -- -- 23
2020-07-08 21:00:00 29.9 37 Norte 59 Nordeste 0 -- -- 26
2020-07-08 20:00:00 30.8 41 Norte 67 Nordeste 0 -- -- 26
2020-07-08 19:00:00 31.8 44 Norte 68 Norte 0 -- -- 26
2020-07-08 18:00:00 34.3 41 Nordeste 62 Norte 0 -- -- 21
2020-07-08 17:00:00 35.5 37 Norte 55 Norte 0 -- -- 22
2020-07-08 16:00:00 35.1 30 Nordeste 50 Nordeste 0 -- -- 34
2020-07-08 15:00:00 35.2 31 Nordeste 47 Nordeste 0 -- -- 34
2020-07-08 14:00:00 37.3 27 Nordeste 44 Nordeste 0 -- -- 27
2020-07-08 13:00:00 40.6 21 Nordeste 40 Nordeste 0 -- -- 20
2020-07-08 12:00:00 39.9 23 Norte 39 Norte 0 -- -- 15
2020-07-08 11:00:00 38 14 Nordeste 43 Nordeste 0 -- -- 20
2020-07-08 10:00:00 37.5 25 Norte 41 Nordeste 0 -- -- 15
2020-07-08 09:00:00 29.3 27 Nordeste 40 Nordeste 0 -- -- 28
2020-07-08 08:00:00 25.8 5 Este 17 Nordeste 0 -- -- 39
2020-07-08 07:00:00 28.1 10 Sudoeste 33 Norte 0 -- -- 37
2020-07-08 06:00:00 31.4 7 Este 41 Norte 0 -- -- 23
2020-07-08 05:00:00 35 27 Norte 40 Norte 0 -- -- 17
2020-07-08 04:00:00 33.5 19 Norte 34 Norte 0 -- -- 19
2020-07-08 03:00:00 25.2 11 Nordeste 23 Nordeste 0 -- -- 41
2020-07-08 02:00:00 24.8 4 Sudeste 12 Este 0 -- -- 60
2020-07-08 01:00:00 23.9 4 Sudeste 11 Sudeste 0 -- -- 70
2020-07-08 00:00:00 26.6 7 Sur 24 Nordeste 0 -- -- 60